Flight Track Log - Related Links

Times and Time Zones

All times are in EDT time to prevent confusion due to time zone crossing. See the EGF3016 flight status page for this flight to view local times or setup timezone preferences in your user account.

Time Position Orientation Groundspeed Altitude Reporting Facility
EDT Latitude Longitude Course Direction KTS MPH feet Rate Location/Type
Fri 09:04:56 AM 42.6139 -92.4306 90° East 221 254 5,100  Level Chicago Center
Fri 09:05:58 AM 42.6156 -92.3403 89° East 237 273 7,200 2,244 Climbing Chicago Center
Fri 09:06:59 AM 42.6075 -92.2283 96° East 272 313 9,700 2,146 Climbing Chicago Center
Fri 09:08:01 AM 42.6006 -92.1111 95° East 297 342 11,600 1,790 Climbing Chicago Center
Fri 09:09:00 AM 42.5333 -91.6469 90° East  Level FlightAware
Fri 09:09:03 AM 42.5928 -91.9519 94° East 349 402 13,400  Level Chicago Center
Fri 09:10:00 AM 42.5335 -91.5213 90° East  Level FlightAware
Fri 09:10:05 AM 42.5853 -91.8125 94° East 373 429 15,000  Level Chicago Center
Fri 09:11:07 AM 42.5778 -91.6664 94° East 393 452 16,500 1,452 Climbing Chicago Center
Fri 09:12:09 AM 42.5689 -91.5197 95° East 400 460 18,000 1,645 Climbing Chicago Center
Fri 09:13:11 AM 42.5592 -91.3456 94° East 396 456 19,900 1,694 Climbing Chicago Center
Fri 09:14:13 AM 42.5492 -91.2008 95° East 392 451 21,500 1,415 Climbing Chicago Center
Fri 09:15:14 AM 42.5403 -91.0506 95° East 403 464 22,800 732 Climbing Chicago Center
Fri 09:16:16 AM 42.5300 -90.8908 95° East 425 489 23,000 97 Climbing Chicago Center
Fri 09:17:18 AM 42.5242 -90.7153 93° East 466 536 23,000  Level Chicago Center
Fri 09:18:20 AM 42.5222 -90.5028 91° East 476 548 23,000 -242 Level Chicago Center
Fri 09:19:22 AM 42.5228 -90.3219 90° East 483 556 22,500 -720 Descending Chicago Center
Fri 09:20:25 AM 42.5203 -90.1603 91° East 439 505 21,500 -1,008 Descending Chicago Center
Fri 09:21:27 AM 42.5203 -90.0014 90° East 428 493 20,400 -1,065 Descending Chicago Center
Fri 09:22:29 AM 42.5186 -89.8381 91° East 416 479 19,300 -1,258 Descending Chicago Center
Fri 09:23:31 AM 42.5147 -89.6639 92° East 399 459 17,800 -1,306 Descending Chicago Center
Fri 09:24:33 AM 42.4989 -89.5111 98° East 412 474 16,600 -1,113 Descending Chicago Center
Fri 09:25:35 AM 42.4797 -89.3583 100° East 413 475 15,500 -1,113 Descending Chicago Center
Fri 09:26:37 AM 42.4625 -89.2100 99° East 404 465 14,300 -726 Descending Chicago Center
Fri 09:27:39 AM 42.4442 -89.0656 100° East 394 453 14,000 -194 Descending Chicago Center
Fri 09:28:41 AM 42.4236 -88.8917 99° East 401 461 13,900 -919 Descending Chicago Center
Fri 09:29:43 AM 42.4050 -88.7467 100° East 395 455 12,100 -1,694 Descending Chicago Center
Fri 09:30:45 AM 42.3872 -88.6039 100° East 389 448 10,400 -1,016 Descending Chicago Center
Fri 09:31:47 AM 42.3667 -88.4619 101° East 387 445 10,000 -194 Descending Chicago Center
Fri 09:32:49 AM 42.3089 -88.3353 122° Southeast 380 437 10,000  Level Chicago Center
Fri 09:33:51 AM 42.2431 -88.2258 129° Southeast 377 434 10,000 -387 Level Chicago Center
Fri 09:34:53 AM 42.1869 -88.1361 130° Southeast 318 366 9,200 -1,065 Descending Chicago Center
Fri 09:35:55 AM 42.1092 -88.0506 141° Southeast 304 350 7,800 -1,163 Descending Chicago Center
Fri 09:36:31 AM 42.1000 -88.0000 104° East 275 316 7,300 -500 Descending Chicago TRACON
Fri 09:37:31 AM 42.0833 -87.9000 103° East 241 277 7,000 -149 Descending Chicago TRACON
Fri 09:38:32 AM 42.0833 -87.8167 90° East 232 267 7,000 -248 Level Chicago TRACON
Fri 09:39:32 AM 42.0833 -87.7333 90° East 224 258 6,500 -593 Descending Chicago TRACON
Fri 09:40:03 AM 42.0911 -87.7011 72° East 225 259 6,100 -1,085 Descending Chicago Center
Fri 09:41:06 AM 42.0747 -87.6283 107° East 226 260 4,800 -1,008 Descending Chicago Center
Fri 09:42:08 AM 42.0064 -87.6222 176° South 212 244 4,000 -629 Descending Chicago Center
Fri 09:43:10 AM 42.0022 -87.6900 265° West 189 217 3,500 -726 Descending Chicago Center
Fri 09:44:12 AM 42.0031 -87.7536 271° West 178 205 2,500 -968 Descending Chicago Center

Login

Don't have an account? Register now (free) for customized features, flight alerts, and more!